Aérodrome :
LOGIN :

S'inscrire | Disclaimer

   EN    FR    IT 

 










Légende :    VFR   VFR Marginal   IFR   IFR Intensif   IFR Très Intensif
Visi : 
Plafond : 
>= 8 km
>= 3000ft
5 à 8 km
1000 à 3000 ft
1500m à 5 km
500 à 1000 ft
800 à 1500m
200 à 500 ft
< 800m
< 200 ft
Symboles :   Orages  Brouillard  Fortes neiges  Fortes précipitations  Vent > 20 kt
SIGMETs :   Divers  Orages  Givrage  Turbulence  Onde Orograph.  Cendres Volcan.






- Altitude de l'aérodrome : 1475 ft


LSZC - Buochs Stans

DERNIER METAR :
  • 250750Z VRB01KT CAVOK 20/15 Q1013

METARs EXPIRÉS :
  • 250720Z VRB01KT CAVOK 20/15 Q1013
  • 250650Z VRB02KT CAVOK 20/15 Q1014
  • 250620Z VRB01KT CAVOK 18/15 Q1013
  • 250550Z AUTO 22004KT 190V250 CAVOK 17/14 Q1014
  • 250520Z AUTO 24003KT CAVOK 17/14 Q1013
  • 250450Z AUTO VRB02KT CAVOK 16/14 Q1014
  • 250420Z AUTO 25003KT CAVOK 15/14 Q1013
  • 250350Z AUTO 22003KT CAVOK 15/14 Q1013
  • 250320Z AUTO VRB03KT CAVOK 16/14 Q1013

TAF TAF LSZC
Valide du 25 à 06h jusqu'au 25 à 15h UTC


250525Z 2506/2515 VRB02KT CAVOK
BECMG 2507/2510 9999 FEW040
PROB40
TEMPO 2511/2515 SHRA FEW050TCU
PROB30
TEMPO 2513/2515 08015G27KT 4000 TSRA FEW050CB



MET'MAP, la Météo Aéronautique d'un coup d'oeil ! - Copyright ORBIFLY Décembre 2007 - Disclaimer

ORBIFLY MET'MAP TEAM :

Programmation & Développement : Alexandra Zaïnal
Sur une idée originale de : Baudouin d'Aumeries
Soutien technique & logistique : Manuel Goepfert
Assistance : Marc-Olivier Méhu




SOURCES & CREDITS :

   NOAA